createdAt,value
2023-03-31T00:00:18.757Z,12.20
2023-03-31T00:02:47.491Z,12.20
2023-03-31T00:05:18.312Z,12.20
2023-03-31T00:07:45.954Z,12.20
2023-03-31T00:10:18.467Z,12.30
2023-03-31T00:12:45.925Z,12.20
2023-03-31T00:15:13.243Z,12.30
2023-03-31T00:17:40.058Z,12.20
2023-03-31T00:20:12.327Z,12.20
2023-03-31T00:22:42.370Z,12.20
2023-03-31T00:25:11.146Z,12.20
2023-03-31T00:27:38.224Z,12.30
2023-03-31T00:30:05.664Z,12.30
2023-03-31T00:32:33.448Z,12.30
2023-03-31T00:35:02.317Z,12.20
2023-03-31T00:37:29.589Z,12.30
2023-03-31T00:39:57.102Z,12.30
2023-03-31T00:42:24.135Z,12.30
2023-03-31T00:45:18.817Z,12.30
2023-03-31T00:47:48.176Z,12.30
2023-03-31T00:50:26.090Z,12.30
2023-03-31T00:53:12.856Z,12.30
2023-03-31T00:55:50.805Z,12.30
2023-03-31T00:58:20.315Z,12.40
2023-03-31T01:00:49.174Z,12.40
2023-03-31T01:03:16.348Z,12.40
2023-03-31T01:05:53.385Z,12.50
2023-03-31T01:08:24.488Z,12.50
2023-03-31T01:10:54.918Z,12.50
2023-03-31T01:13:22.731Z,12.50
2023-03-31T01:15:49.894Z,12.50
2023-03-31T01:18:21.219Z,12.60
2023-03-31T01:20:59.963Z,12.60
2023-03-31T01:23:49.705Z,12.50
2023-03-31T01:26:46.963Z,12.50
2023-03-31T01:29:40.435Z,12.50
2023-03-31T01:32:07.133Z,12.50
2023-03-31T01:35:11.061Z,12.50
2023-03-31T01:37:47.164Z,12.50
2023-03-31T01:40:42.700Z,12.40
2023-03-31T01:43:22.736Z,12.40
2023-03-31T01:46:23.958Z,12.30
2023-03-31T01:49:07.905Z,12.30
2023-03-31T01:51:50.199Z,12.40
2023-03-31T01:54:22.998Z,12.30
2023-03-31T01:56:51.510Z,12.30
2023-03-31T01:59:23.904Z,12.30
2023-03-31T02:02:10.216Z,12.20
2023-03-31T02:04:43.623Z,12.20
2023-03-31T02:07:14.878Z,12.20
2023-03-31T02:09:47.882Z,12.20
2023-03-31T02:12:16.520Z,12.20
2023-03-31T02:14:46.822Z,12.20
2023-03-31T02:17:18.948Z,12.20
2023-03-31T02:19:49.544Z,12.10
2023-03-31T02:22:19.688Z,12.20
2023-03-31T02:24:48.848Z,12.20
2023-03-31T02:27:37.075Z,12.10
2023-03-31T02:30:04.640Z,12.20
2023-03-31T02:32:36.586Z,12.10
2023-03-31T02:35:04.179Z,12.10
2023-03-31T02:37:31.231Z,12.10
2023-03-31T02:40:01.490Z,12.10
2023-03-31T02:42:28.314Z,12.00
2023-03-31T02:44:55.058Z,12.10
2023-03-31T02:47:22.414Z,12.10
2023-03-31T02:49:54.459Z,12.00
2023-03-31T02:52:49.092Z,12.00
2023-03-31T02:56:00.550Z,12.00
2023-03-31T02:58:35.080Z,12.00
2023-03-31T03:01:04.862Z,12.00
2023-03-31T03:03:31.618Z,11.90
2023-03-31T03:06:13.906Z,11.90
2023-03-31T03:08:59.202Z,11.90
2023-03-31T03:11:37.819Z,11.90
2023-03-31T03:14:05.490Z,11.80
2023-03-31T03:17:16.830Z,11.80
2023-03-31T03:19:43.602Z,11.80
2023-03-31T03:22:10.535Z,11.80
2023-03-31T03:24:37.238Z,11.70
2023-03-31T03:27:04.154Z,11.70
2023-03-31T03:29:30.904Z,11.70
2023-03-31T03:31:57.932Z,11.60
2023-03-31T03:34:25.719Z,11.60
2023-03-31T03:36:52.528Z,11.60
2023-03-31T03:39:19.261Z,11.60
2023-03-31T03:41:46.865Z,11.50
2023-03-31T03:44:13.664Z,11.60
2023-03-31T03:46:40.586Z,11.60
2023-03-31T03:49:07.419Z,11.50
2023-03-31T03:51:34.185Z,11.50
2023-03-31T03:54:00.919Z,11.50
2023-03-31T03:56:28.299Z,11.50
2023-03-31T03:58:55.064Z,11.50
2023-03-31T04:01:22.657Z,11.60
2023-03-31T04:03:49.728Z,11.50
2023-03-31T04:06:16.495Z,11.60
2023-03-31T04:08:43.177Z,11.60
2023-03-31T04:11:19.103Z,11.60
2023-03-31T04:13:47.041Z,11.60
2023-03-31T04:16:14.085Z,11.60
2023-03-31T04:18:43.590Z,11.60
2023-03-31T04:21:15.193Z,11.60
2023-03-31T04:23:46.328Z,11.60
2023-03-31T04:26:13.788Z,11.60
2023-03-31T04:28:42.865Z,11.60
2023-03-31T04:31:15.395Z,11.60
2023-03-31T04:33:46.145Z,11.60
2023-03-31T04:36:19.142Z,11.60
2023-03-31T04:39:02.608Z,11.70
2023-03-31T04:41:29.408Z,11.60
2023-03-31T04:43:56.168Z,11.60
2023-03-31T04:46:23.207Z,11.60
2023-03-31T04:48:49.974Z,11.60
2023-03-31T04:51:16.813Z,11.60
2023-03-31T04:53:43.595Z,11.60
2023-03-31T04:56:10.739Z,11.60
2023-03-31T04:58:38.003Z,11.60
2023-03-31T05:01:08.536Z,11.60
2023-03-31T05:03:35.385Z,11.60
2023-03-31T05:06:02.365Z,11.60
2023-03-31T05:08:29.394Z,11.60
2023-03-31T05:10:56.197Z,11.60
2023-03-31T05:13:22.984Z,11.60
2023-03-31T05:15:51.659Z,11.60
2023-03-31T05:18:18.998Z,11.60
2023-03-31T05:20:46.455Z,11.60
2023-03-31T05:23:13.626Z,11.60
2023-03-31T05:25:42.252Z,11.60
2023-03-31T05:28:10.044Z,11.60
2023-03-31T05:30:36.793Z,11.60
2023-03-31T05:33:03.546Z,11.60
2023-03-31T05:35:30.370Z,11.60
2023-03-31T05:37:57.101Z,11.60
2023-03-31T05:40:23.864Z,11.60
2023-03-31T05:42:50.839Z,11.60
2023-03-31T05:45:18.047Z,11.60
2023-03-31T05:47:44.797Z,11.60
2023-03-31T05:50:14.033Z,11.60
2023-03-31T05:52:41.440Z,11.60
2023-03-31T05:55:08.813Z,11.70
2023-03-31T05:57:35.646Z,11.60
2023-03-31T06:00:04.245Z,11.60
2023-03-31T06:02:31.340Z,11.60
2023-03-31T06:04:58.180Z,11.60
2023-03-31T06:07:25.146Z,11.50
2023-03-31T06:09:51.889Z,11.60
2023-03-31T06:12:18.695Z,11.60
2023-03-31T06:14:45.424Z,11.60
2023-03-31T06:17:12.142Z,11.60
2023-03-31T06:19:40.118Z,11.60
2023-03-31T06:22:06.807Z,11.50
2023-03-31T06:24:33.611Z,11.50
2023-03-31T06:27:01.248Z,11.60
2023-03-31T06:29:28.410Z,11.60
2023-03-31T06:31:55.475Z,11.60
2023-03-31T06:34:22.337Z,11.50
2023-03-31T06:36:49.185Z,11.60
2023-03-31T06:39:16.241Z,11.60
2023-03-31T06:41:42.982Z,11.60
2023-03-31T06:44:10.242Z,11.60
2023-03-31T06:46:37.161Z,11.60
2023-03-31T06:49:03.876Z,11.60
2023-03-31T06:51:32.598Z,11.70
2023-03-31T06:53:59.636Z,11.70
2023-03-31T06:56:27.380Z,11.70
2023-03-31T06:58:54.221Z,11.70
2023-03-31T07:01:21.038Z,11.70
2023-03-31T07:03:47.836Z,11.80
2023-03-31T07:06:14.758Z,11.80
2023-03-31T07:08:41.494Z,11.80
2023-03-31T07:11:08.549Z,11.90
2023-03-31T07:13:35.475Z,11.90
2023-03-31T07:16:02.227Z,11.90
2023-03-31T07:18:35.101Z,11.90
2023-03-31T07:21:04.425Z,12.00
2023-03-31T07:23:32.720Z,12.10
2023-03-31T07:26:02.712Z,12.00
2023-03-31T07:28:30.237Z,12.10
2023-03-31T07:30:56.973Z,12.10
2023-03-31T07:33:23.853Z,12.10
2023-03-31T07:36:00.205Z,12.10
2023-03-31T07:38:34.926Z,12.10
2023-03-31T07:41:08.424Z,12.10
2023-03-31T07:43:36.920Z,12.20
2023-03-31T07:46:05.652Z,12.20
2023-03-31T07:48:33.851Z,12.20
2023-03-31T07:51:00.625Z,12.30
2023-03-31T07:53:27.356Z,12.30
2023-03-31T07:55:54.038Z,12.30
2023-03-31T07:58:20.799Z,12.40
2023-03-31T08:00:47.575Z,12.40
2023-03-31T08:03:14.701Z,12.50
2023-03-31T08:05:41.476Z,12.50
2023-03-31T08:08:08.189Z,12.60
2023-03-31T08:10:34.867Z,12.70
2023-03-31T08:13:01.615Z,12.70
2023-03-31T08:15:28.645Z,12.80
2023-03-31T08:17:55.370Z,12.90
2023-03-31T08:20:22.239Z,12.90
2023-03-31T08:22:49.003Z,12.90
2023-03-31T08:25:16.298Z,12.90
2023-03-31T08:27:43.003Z,12.90
2023-03-31T08:30:11.581Z,12.80
2023-03-31T08:32:38.775Z,12.80
2023-03-31T08:35:06.362Z,12.80
2023-03-31T08:37:33.266Z,12.70
2023-03-31T08:40:00.475Z,12.70
2023-03-31T08:42:47.591Z,12.70
2023-03-31T08:45:24.405Z,12.80
2023-03-31T08:47:55.850Z,12.90
2023-03-31T08:50:27.466Z,12.90
2023-03-31T08:53:08.079Z,12.90
2023-03-31T08:55:53.799Z,13.00
2023-03-31T08:58:46.307Z,13.00
2023-03-31T09:01:47.895Z,13.10
2023-03-31T09:04:24.640Z,13.10
2023-03-31T09:07:03.251Z,13.20
2023-03-31T09:09:39.831Z,13.30
2023-03-31T09:12:11.979Z,13.30
2023-03-31T09:14:44.950Z,13.30
2023-03-31T09:17:23.946Z,13.30
2023-03-31T09:20:09.257Z,13.30
2023-03-31T09:23:02.054Z,13.30
2023-03-31T09:25:36.201Z,13.30
2023-03-31T09:28:06.989Z,13.30
2023-03-31T09:30:36.674Z,13.20
2023-03-31T09:33:18.353Z,13.20
2023-03-31T09:35:46.475Z,13.20
2023-03-31T09:38:14.840Z,13.20
2023-03-31T09:40:42.447Z,13.10
2023-03-31T09:43:26.125Z,13.10
2023-03-31T09:46:08.482Z,13.10
2023-03-31T09:48:38.646Z,13.00
2023-03-31T09:51:17.575Z,13.00
2023-03-31T09:53:52.768Z,13.00
2023-03-31T09:56:34.912Z,13.00
2023-03-31T09:59:03.757Z,13.00
2023-03-31T10:01:30.611Z,13.00
2023-03-31T10:03:58.317Z,12.90
2023-03-31T10:06:26.425Z,12.90
2023-03-31T10:08:56.470Z,12.90
2023-03-31T10:11:24.033Z,12.80
2023-03-31T10:14:04.083Z,12.80
2023-03-31T10:16:32.143Z,12.80
2023-03-31T10:19:14.142Z,12.80
2023-03-31T10:21:41.107Z,12.70
2023-03-31T10:24:11.138Z,12.70
2023-03-31T10:26:40.036Z,12.70
2023-03-31T10:29:15.666Z,12.60
2023-03-31T10:31:42.548Z,12.60
2023-03-31T10:34:16.993Z,12.60
2023-03-31T10:36:49.720Z,12.60
2023-03-31T10:39:17.706Z,12.60
2023-03-31T10:41:51.397Z,12.70
2023-03-31T10:44:33.502Z,12.70
2023-03-31T10:47:33.134Z,12.70
2023-03-31T10:50:04.094Z,12.70
2023-03-31T10:52:48.417Z,12.70
2023-03-31T10:55:24.922Z,12.80
2023-03-31T10:58:06.483Z,12.80
2023-03-31T11:01:07.544Z,12.80
2023-03-31T11:03:59.480Z,12.80
2023-03-31T11:06:38.671Z,12.80
2023-03-31T11:09:27.399Z,12.80
2023-03-31T11:12:12.789Z,12.80
2023-03-31T11:14:48.283Z,12.70
2023-03-31T11:17:33.026Z,12.70
2023-03-31T11:20:19.549Z,12.80
2023-03-31T11:22:55.118Z,12.80
2023-03-31T11:25:39.295Z,12.80
2023-03-31T11:28:24.696Z,12.80
2023-03-31T11:31:05.889Z,12.80
2023-03-31T11:33:40.637Z,12.80
2023-03-31T11:36:23.316Z,12.80
2023-03-31T11:38:55.962Z,12.90
2023-03-31T11:41:37.933Z,12.90
2023-03-31T11:44:09.533Z,12.90
2023-03-31T11:46:42.355Z,12.90
2023-03-31T11:49:15.538Z,12.90
2023-03-31T11:51:42.238Z,12.90
2023-03-31T11:54:18.259Z,12.90
2023-03-31T11:56:45.653Z,12.90
2023-03-31T11:59:17.309Z,12.90
2023-03-31T12:02:13.260Z,12.90
2023-03-31T12:04:44.256Z,12.90
2023-03-31T12:07:39.660Z,12.90
2023-03-31T12:10:31.132Z,12.90
2023-03-31T12:13:14.468Z,12.80
2023-03-31T12:15:46.291Z,12.70
2023-03-31T12:18:18.613Z,12.70
2023-03-31T12:20:51.094Z,12.70
2023-03-31T12:23:22.394Z,12.60
2023-03-31T12:26:07.303Z,12.60
2023-03-31T12:28:38.196Z,12.60
2023-03-31T12:31:08.146Z,12.60
2023-03-31T12:33:41.990Z,12.60
2023-03-31T12:36:32.719Z,12.70
2023-03-31T12:39:08.827Z,12.70
2023-03-31T12:41:54.287Z,12.70
2023-03-31T12:44:48.814Z,12.70
2023-03-31T12:47:39.886Z,12.70
2023-03-31T12:50:46.964Z,12.70
2023-03-31T12:53:43.970Z,12.60
2023-03-31T12:56:10.993Z,12.60
2023-03-31T12:58:39.940Z,12.70
2023-03-31T13:01:16.109Z,12.60
2023-03-31T13:03:55.111Z,12.60
2023-03-31T13:06:29.239Z,12.70
2023-03-31T13:09:11.529Z,12.70
2023-03-31T13:11:44.532Z,12.70
2023-03-31T13:14:21.910Z,12.80
2023-03-31T13:16:50.099Z,12.90
2023-03-31T13:19:34.983Z,12.90
2023-03-31T13:22:06.877Z,13.00
2023-03-31T13:24:34.452Z,13.00
2023-03-31T13:27:31.340Z,13.00
2023-03-31T13:29:58.107Z,13.10
2023-03-31T13:32:26.501Z,13.10
2023-03-31T13:35:05.689Z,13.10
2023-03-31T13:37:58.079Z,13.20
2023-03-31T13:41:08.081Z,13.20
2023-03-31T13:44:12.013Z,13.20
2023-03-31T13:46:45.662Z,13.10
2023-03-31T13:49:28.134Z,13.10
2023-03-31T13:52:09.510Z,13.10
2023-03-31T13:54:55.038Z,13.00
2023-03-31T13:57:54.998Z,13.00
2023-03-31T14:00:31.561Z,13.00
2023-03-31T14:03:01.654Z,13.00
2023-03-31T14:05:39.700Z,13.10
2023-03-31T14:08:15.203Z,13.10
2023-03-31T14:10:43.897Z,13.00
2023-03-31T14:13:17.012Z,12.90
2023-03-31T14:15:54.391Z,12.90
2023-03-31T14:18:46.189Z,12.90
2023-03-31T14:21:21.062Z,12.80
2023-03-31T14:24:18.620Z,12.80
2023-03-31T14:26:53.956Z,12.70
2023-03-31T14:29:38.054Z,12.70
2023-03-31T14:32:31.949Z,12.70
2023-03-31T14:35:28.932Z,12.60
2023-03-31T14:37:56.756Z,12.60
2023-03-31T14:40:24.612Z,12.60
2023-03-31T14:42:51.381Z,12.50
2023-03-31T14:45:25.135Z,12.50
2023-03-31T14:47:57.722Z,12.40
2023-03-31T14:50:31.320Z,12.40
2023-03-31T14:52:59.618Z,12.50
2023-03-31T14:55:44.061Z,12.40
2023-03-31T14:58:14.682Z,12.40
2023-03-31T15:00:42.601Z,12.40
2023-03-31T15:03:14.998Z,12.40
2023-03-31T15:05:43.722Z,12.40
2023-03-31T15:08:23.809Z,12.40
2023-03-31T15:11:02.367Z,12.40
2023-03-31T15:14:00.791Z,12.40
2023-03-31T15:16:42.365Z,12.40
2023-03-31T15:19:26.116Z,12.40
2023-03-31T15:22:01.878Z,12.40
2023-03-31T15:24:29.538Z,12.40
2023-03-31T15:27:18.057Z,12.40
2023-03-31T15:29:55.234Z,12.40
2023-03-31T15:32:35.753Z,12.40
2023-03-31T15:35:18.627Z,12.50
2023-03-31T15:37:49.579Z,12.50
2023-03-31T15:40:21.347Z,12.40
2023-03-31T15:43:01.696Z,12.40
2023-03-31T15:45:50.203Z,12.40
2023-03-31T15:48:34.790Z,12.40
2023-03-31T15:51:13.649Z,12.40
2023-03-31T15:53:54.529Z,12.40
2023-03-31T15:56:27.156Z,12.40
2023-03-31T15:59:00.879Z,12.30
2023-03-31T16:01:34.631Z,12.30
2023-03-31T16:04:11.593Z,12.30
2023-03-31T16:06:38.255Z,12.20
2023-03-31T16:09:08.206Z,12.10
2023-03-31T16:11:46.822Z,12.10
2023-03-31T16:14:27.362Z,12.10
2023-03-31T16:17:02.882Z,12.10
2023-03-31T16:19:32.452Z,12.10
2023-03-31T16:22:02.004Z,12.00
2023-03-31T16:24:35.350Z,12.10
2023-03-31T16:27:06.760Z,12.10
2023-03-31T16:29:35.332Z,12.10
2023-03-31T16:32:14.256Z,12.10
2023-03-31T16:35:00.280Z,12.20
2023-03-31T16:37:27.397Z,12.20
2023-03-31T16:39:54.584Z,12.20
2023-03-31T16:42:21.774Z,12.10
2023-03-31T16:47:36.554Z,12.10
2023-03-31T16:50:07.472Z,12.00
2023-03-31T16:52:35.800Z,12.00
2023-03-31T16:55:02.656Z,12.00
2023-03-31T16:57:29.478Z,12.00
2023-03-31T16:59:58.750Z,12.00
2023-03-31T17:02:26.239Z,11.90
2023-03-31T17:04:56.608Z,11.90
2023-03-31T17:07:26.927Z,11.80
2023-03-31T17:09:53.729Z,11.80
2023-03-31T17:12:20.923Z,11.80
2023-03-31T17:14:47.778Z,11.70
2023-03-31T17:17:17.370Z,11.70
2023-03-31T17:19:44.669Z,11.60
2023-03-31T17:22:11.449Z,11.60
2023-03-31T17:24:38.286Z,11.60
2023-03-31T17:27:05.205Z,11.50
2023-03-31T17:29:32.332Z,11.50
2023-03-31T17:31:59.107Z,11.60
2023-03-31T17:34:26.079Z,11.50
2023-03-31T17:36:54.826Z,11.50
2023-03-31T17:39:21.610Z,11.50
2023-03-31T17:41:48.310Z,11.50
2023-03-31T17:44:15.042Z,11.40
2023-03-31T17:46:42.212Z,11.40
2023-03-31T17:49:09.003Z,11.40
2023-03-31T17:51:36.376Z,11.40
2023-03-31T17:54:03.868Z,11.40
2023-03-31T17:56:30.698Z,11.40
2023-03-31T17:58:57.650Z,11.40
2023-03-31T18:01:24.410Z,11.40
2023-03-31T18:03:51.165Z,11.40
2023-03-31T18:06:18.031Z,11.40
2023-03-31T18:08:44.844Z,11.40
2023-03-31T18:11:13.328Z,11.40
2023-03-31T18:13:40.644Z,11.40
2023-03-31T18:16:09.569Z,11.40
2023-03-31T18:18:37.886Z,11.40
2023-03-31T18:21:06.511Z,11.40
2023-03-31T18:23:33.912Z,11.40
2023-03-31T18:26:01.781Z,11.40
2023-03-31T18:28:28.670Z,11.30
2023-03-31T18:30:55.385Z,11.30
2023-03-31T18:33:22.344Z,11.30
2023-03-31T18:35:50.178Z,11.30
2023-03-31T18:38:18.407Z,11.30
2023-03-31T18:40:53.344Z,11.30
2023-03-31T18:43:22.441Z,11.30
2023-03-31T18:45:49.915Z,11.30
2023-03-31T18:48:18.525Z,11.30
2023-03-31T18:50:46.189Z,11.30
2023-03-31T18:53:15.262Z,11.30
2023-03-31T18:55:42.601Z,11.30
2023-03-31T18:58:09.766Z,11.30
2023-03-31T19:00:36.657Z,11.30
2023-03-31T19:03:03.653Z,11.30
2023-03-31T19:05:30.562Z,11.20
2023-03-31T19:07:57.369Z,11.20
2023-03-31T19:10:24.143Z,11.20
2023-03-31T19:12:50.995Z,11.20
2023-03-31T19:15:18.079Z,11.20
2023-03-31T19:17:44.925Z,11.20
2023-03-31T19:20:16.494Z,11.20
2023-03-31T19:22:49.323Z,11.20
2023-03-31T19:25:18.255Z,11.20
2023-03-31T19:27:46.075Z,11.20
2023-03-31T19:30:22.420Z,11.20
2023-03-31T19:32:50.192Z,11.20
2023-03-31T19:35:20.861Z,11.20
2023-03-31T19:37:48.615Z,11.20
2023-03-31T19:40:15.435Z,11.20
2023-03-31T19:42:42.418Z,11.20
2023-03-31T19:45:09.702Z,11.20
2023-03-31T19:47:36.628Z,11.20
2023-03-31T19:50:04.068Z,11.20
2023-03-31T19:52:30.888Z,11.20
2023-03-31T19:54:57.808Z,11.20
2023-03-31T19:57:24.617Z,11.20
2023-03-31T19:59:51.320Z,11.20
2023-03-31T20:02:18.544Z,11.10
2023-03-31T20:04:45.611Z,11.10
2023-03-31T20:07:12.633Z,11.10
2023-03-31T20:09:39.725Z,11.10
2023-03-31T20:12:06.967Z,11.10
2023-03-31T20:14:34.203Z,11.10
2023-03-31T20:17:02.444Z,11.10
2023-03-31T20:19:29.563Z,11.10
2023-03-31T20:21:57.886Z,11.10
2023-03-31T20:24:24.822Z,11.10
2023-03-31T20:26:51.963Z,11.10
2023-03-31T20:29:18.917Z,11.10
2023-03-31T20:31:46.023Z,11.10
2023-03-31T20:34:14.965Z,11.10
2023-03-31T20:36:43.916Z,11.10
2023-03-31T20:39:12.842Z,11.10
2023-03-31T20:41:40.121Z,11.10
2023-03-31T20:44:11.410Z,11.10
2023-03-31T20:46:41.667Z,11.10
2023-03-31T20:49:08.721Z,11.10
2023-03-31T20:51:37.496Z,11.10
2023-03-31T20:54:04.831Z,11.10
2023-03-31T20:56:34.956Z,11.10
2023-03-31T20:59:02.097Z,11.10
2023-03-31T21:01:32.589Z,11.10
2023-03-31T21:04:01.780Z,11.10
2023-03-31T21:06:31.053Z,11.10
2023-03-31T21:08:58.522Z,11.10
2023-03-31T21:11:25.961Z,11.10
2023-03-31T21:13:53.349Z,11.10
2023-03-31T21:16:21.314Z,11.10
2023-03-31T21:18:48.324Z,11.10
2023-03-31T21:21:24.344Z,11.10
2023-03-31T21:23:51.623Z,11.10
2023-03-31T21:26:18.835Z,11.00
2023-03-31T21:28:46.030Z,11.10
2023-03-31T21:31:18.170Z,11.10
2023-03-31T21:33:46.725Z,11.10
2023-03-31T21:36:16.668Z,11.10
2023-03-31T21:38:44.729Z,11.10
2023-03-31T21:41:14.253Z,11.10
2023-03-31T21:43:41.782Z,11.10
2023-03-31T21:46:09.029Z,11.10
2023-03-31T21:48:35.998Z,11.00
2023-03-31T21:51:03.194Z,11.00
2023-03-31T21:53:31.475Z,11.00
2023-03-31T21:55:59.007Z,11.00
2023-03-31T21:58:28.788Z,11.00
2023-03-31T22:01:01.190Z,11.00
2023-03-31T22:03:29.022Z,11.00
2023-03-31T22:05:56.924Z,11.00
2023-03-31T22:08:24.333Z,11.00
2023-03-31T22:10:52.173Z,11.00
2023-03-31T22:13:21.379Z,11.00
2023-03-31T22:15:48.801Z,10.90
2023-03-31T22:18:17.046Z,10.90
2023-03-31T22:20:44.543Z,10.90
2023-03-31T22:23:11.451Z,10.90
2023-03-31T22:25:38.222Z,10.90
2023-03-31T22:28:07.090Z,10.80
2023-03-31T22:30:34.183Z,10.80
2023-03-31T22:33:01.421Z,10.80
2023-03-31T22:35:28.920Z,10.80
2023-03-31T22:37:55.654Z,10.70
2023-03-31T22:40:22.482Z,10.70
2023-03-31T22:42:49.285Z,10.60
2023-03-31T22:45:16.363Z,10.60
2023-03-31T22:47:43.224Z,10.60
2023-03-31T22:50:11.211Z,10.50
2023-03-31T22:52:38.135Z,10.50
2023-03-31T22:55:06.172Z,10.50
2023-03-31T22:57:33.293Z,10.50
2023-03-31T23:00:00.750Z,10.50
2023-03-31T23:02:27.585Z,10.50
2023-03-31T23:04:54.454Z,10.40
2023-03-31T23:07:22.253Z,10.40
2023-03-31T23:09:49.089Z,10.30
2023-03-31T23:12:16.300Z,10.40
2023-03-31T23:14:43.042Z,10.40
2023-03-31T23:17:09.727Z,10.40
2023-03-31T23:19:37.754Z,10.40
2023-03-31T23:22:05.946Z,10.30
2023-03-31T23:24:33.281Z,10.30
2023-03-31T23:27:00.030Z,10.30
2023-03-31T23:29:27.350Z,10.30
2023-03-31T23:31:54.149Z,10.30
2023-03-31T23:34:21.321Z,10.30
2023-03-31T23:36:48.180Z,10.30
2023-03-31T23:39:14.955Z,10.20
2023-03-31T23:41:41.660Z,10.20
2023-03-31T23:44:08.412Z,10.20
2023-03-31T23:46:36.190Z,10.20
2023-03-31T23:49:04.824Z,10.10
2023-03-31T23:51:31.591Z,10.10
2023-03-31T23:53:58.298Z,10.10
2023-03-31T23:56:27.079Z,10.10
2023-03-31T23:58:54.127Z,10.10
